Augusta State Airport Augusta US
ICAO: KAUG
IATA: AUG
Category: Medium
Scheduled Services: Yes

Elevation: 352 ft
TransAlt. 18000 ft.

Airport Communications:
PORTLAND APP/DEP:128.35
ASOS:118.325
CLNC DEL:119.95
BANGOR RDO:122.6
CTAF/UNICOM:123

KAUG Zoom In..

Runways:

(A) RW 08 length 2703 ft width 75 ft
---- / hdg 80

(B) RW 17 length 5001 ft width 100 ft
ILS 108.70 / hdg 171

(C) RW 26 length 2703 ft width 75 ft
---- / hdg 260

(D) RW 35 length 5001 ft width 100 ft
---- / hdg 351

Location; KAUG
Day. 22 / Time. 03.53 Zulu
* Altimeter: 30.19
* Temperature: 01° c. 33.8°f.
* Wind from: 040° Speed 07 kn.
Dewpoint: -04° c.
Visibility: 10 Statute Miles.
Clouds: Few 4600 ft.
Clouds: Overcast 11000 ft.

KAUG 220353Z AUTO 04007KT 10SM FEW046 OVC110 01/M04 A3019 RMK AO2 SLP227 T00111044


Wind From 040°
Speed 07 kn.

jpsM music video
CHECK IT OUT

jpsM - It Moves..

 
jpsmedia.com for Web Design  worldairports.se 2018   terms of use